»·PEaware :: DCM825 KPDX-KSJC

DCM825 :: KPDX-KSJC

FLIGHT INFORMATION

Flight Status: Arrived
Operator: Unknown
More flights by this operator :: More flights under this callsign
Pilot: Tyler J. (19619)
Aircraft: CESSNA 525A CITATION CJ2
(C25A)
More flights by this aircraft type
Origin: KPDX Portland Intl
United States
Destination: KSJC Mineta San Jose Intl
United States
More flights between these airports :: More routes between these airports
Route: +MINNE5 HISKU Q5 HUPTU CHBLI BRIXX2
File this flight plan on PilotEdge
Remarks:
Altitude:
(Current/Filed)
33,000ft
Speed:
(Current/Filed)
430kts
Departed: 01-Oct-18 09:14 AM
Arrived: 01-Oct-18 10:50 AM
Distance/Time
Traveled:
495nm/1:36
Distance/Time
To Go:
Arrived

Flight Plot

Page will automatically refresh every two minutes.

Flight plan parsing failed; only flown route is shown


Map Options




Map Legend


Flown Route
Filed Route
Departure Airport
Arrival Airport
Navaid (VOR, NDB)
Fix

Horizontal Profiles

Position Reports

Time Latitude Longitude Heading Altitude Ground
Speed
01-Oct-18 08:57 45.586887 -122.583811 279 34ft 0kts
01-Oct-18 08:58 45.586887 -122.583811 279 34ft 0kts
01-Oct-18 08:59 45.586887 -122.583811 279 34ft 0kts
01-Oct-18 09:00 45.586887 -122.583811 279 34ft 0kts
01-Oct-18 09:01 45.586887 -122.583811 279 34ft 0kts
01-Oct-18 09:02 45.586887 -122.583811 279 34ft 0kts
01-Oct-18 09:03 45.586888 -122.583813 279 34ft 0kts
01-Oct-18 09:04 45.586888 -122.583816 279 34ft 0kts
01-Oct-18 09:05 45.586889 -122.583821 279 34ft 0kts
01-Oct-18 09:06 45.587142 -122.583725 40 34ft 0kts
01-Oct-18 09:07 45.587144 -122.583722 40 34ft 0kts
01-Oct-18 09:08 45.587146 -122.583720 40 34ft 0kts
01-Oct-18 09:09 45.587147 -122.583718 40 34ft 0kts
01-Oct-18 09:10 45.587149 -122.583715 40 34ft 0kts
01-Oct-18 09:11 45.587151 -122.583713 40 34ft 0kts
01-Oct-18 09:12 45.589400 -122.584553 302 34ft 15kts
01-Oct-18 09:13 45.591813 -122.590468 300 34ft 17kts
01-Oct-18 09:14 45.593975 -122.596027 296 34ft 12kts
01-Oct-18 09:15 45.594640 -122.597177 29 34ft 7kts
01-Oct-18 09:16 45.588463 -122.579542 119 314ft 160kts
01-Oct-18 09:17 45.569922 -122.498429 101 4209ft 259kts
01-Oct-18 09:18 45.554926 -122.400854 108 6994ft 217kts
01-Oct-18 09:19 45.522760 -122.326165 165 10748ft 241kts
01-Oct-18 09:20 45.453798 -122.314379 192 15096ft 255kts
01-Oct-18 09:21 45.408855 -122.388273 242 18889ft 262kts
01-Oct-18 09:22 45.377708 -122.484402 243 22015ft 272kts
01-Oct-18 09:23 45.345881 -122.584258 243 24644ft 281kts
01-Oct-18 09:24 45.313027 -122.686804 243 27075ft 288kts
01-Oct-18 09:25 45.279258 -122.791741 243 29289ft 296kts
01-Oct-18 09:26 45.244454 -122.899467 243 31303ft 304kts
01-Oct-18 09:27 45.176372 -122.961846 191 32849ft 329kts
01-Oct-18 09:28 45.079045 -122.964623 183 32911ft 366kts
01-Oct-18 09:29 44.974818 -122.960859 183 32914ft 379kts
01-Oct-18 09:30 44.868792 -122.956829 183 32917ft 383kts
01-Oct-18 09:31 44.762161 -122.953016 183 32929ft 384kts
01-Oct-18 09:32 44.654856 -122.949330 182 32929ft 385kts
01-Oct-18 09:33 44.547749 -122.945726 182 32932ft 385kts
01-Oct-18 09:34 44.440452 -122.942271 182 32935ft 385kts
01-Oct-18 09:35 44.333362 -122.938929 182 32934ft 385kts
01-Oct-18 09:36 44.226345 -122.935622 183 32938ft 385kts
01-Oct-18 09:37 44.119282 -122.932342 183 32936ft 384kts
01-Oct-18 09:38 44.016475 -122.929199 183 32938ft 383kts
01-Oct-18 09:39 43.909949 -122.925967 183 32939ft 383kts
01-Oct-18 09:40 43.803259 -122.922736 183 32938ft 382kts
01-Oct-18 09:41 43.697371 -122.919544 183 32939ft 381kts
01-Oct-18 09:42 43.591172 -122.916357 183 32938ft 381kts
01-Oct-18 09:43 43.485093 -122.913188 183 32942ft 381kts
01-Oct-18 09:44 43.379158 -122.910031 183 32951ft 381kts
01-Oct-18 09:45 43.272971 -122.906877 183 32956ft 381kts
01-Oct-18 09:46 43.166885 -122.903736 183 32971ft 381kts
01-Oct-18 09:47 43.060862 -122.900608 182 32972ft 381kts
01-Oct-18 09:48 42.954728 -122.897489 182 32980ft 382kts
01-Oct-18 09:49 42.848485 -122.894378 182 32985ft 382kts
01-Oct-18 09:50 42.741884 -122.891270 182 32986ft 382kts
01-Oct-18 09:51 42.635288 -122.888179 182 32990ft 383kts
01-Oct-18 09:52 42.528767 -122.885109 182 32990ft 383kts
01-Oct-18 09:53 42.421805 -122.882024 182 32998ft 386kts
01-Oct-18 09:54 42.318034 -122.879020 182 33002ft 387kts
01-Oct-18 09:55 42.210303 -122.875923 182 33001ft 387kts
01-Oct-18 09:56 42.102146 -122.872835 182 33003ft 388kts
01-Oct-18 09:57 41.994252 -122.869763 182 33002ft 388kts
01-Oct-18 09:58 41.885841 -122.866696 182 33001ft 389kts
01-Oct-18 09:59 41.777753 -122.863648 182 32999ft 389kts
01-Oct-18 10:00 41.669215 -122.860602 182 32996ft 390kts
01-Oct-18 10:01 41.560696 -122.857571 182 32992ft 390kts
01-Oct-18 10:02 41.451870 -122.854545 182 32990ft 390kts
01-Oct-18 10:03 41.343216 -122.851148 182 32988ft 391kts
01-Oct-18 10:04 41.234107 -122.845180 181 32989ft 391kts
01-Oct-18 10:05 41.125278 -122.838698 182 32987ft 391kts
01-Oct-18 10:06 41.016619 -122.832196 182 32982ft 390kts
01-Oct-18 10:07 40.908507 -122.825759 183 32977ft 389kts
01-Oct-18 10:08 40.803839 -122.819567 183 32975ft 388kts
01-Oct-18 10:09 40.696058 -122.813216 183 32976ft 388kts
01-Oct-18 10:10 40.588027 -122.806876 183 32977ft 388kts
01-Oct-18 10:11 40.480229 -122.800568 183 32975ft 387kts
01-Oct-18 10:12 40.372703 -122.794285 184 32975ft 387kts
01-Oct-18 10:13 40.265146 -122.788027 184 32973ft 387kts
01-Oct-18 10:14 40.157597 -122.781781 184 32972ft 386kts
01-Oct-18 10:15 40.050169 -122.775573 184 32970ft 386kts
01-Oct-18 10:16 39.943040 -122.769406 184 32970ft 385kts
01-Oct-18 10:17 39.835586 -122.763237 184 32969ft 385kts
01-Oct-18 10:18 39.728566 -122.757117 184 32969ft 385kts
01-Oct-18 10:19 39.621115 -122.750996 184 32969ft 385kts
01-Oct-18 10:20 39.514066 -122.743574 181 32882ft 390kts
01-Oct-18 10:21 39.404700 -122.723074 178 32301ft 399kts
01-Oct-18 10:22 39.301410 -122.700117 178 31722ft 382kts
01-Oct-18 10:23 39.197900 -122.677105 178 31134ft 375kts
01-Oct-18 10:24 39.095096 -122.654505 178 30630ft 373kts
01-Oct-18 10:25 38.992771 -122.632105 177 30130ft 373kts
01-Oct-18 10:26 38.890487 -122.609762 177 29632ft 374kts
01-Oct-18 10:27 38.787332 -122.587268 177 29131ft 376kts
01-Oct-18 10:28 38.684367 -122.564862 177 28596ft 373kts
01-Oct-18 10:29 38.584720 -122.544017 180 27909ft 358kts
01-Oct-18 10:30 38.484692 -122.536166 183 26338ft 353kts
01-Oct-18 10:31 38.389662 -122.532684 184 24793ft 336kts
01-Oct-18 10:32 38.296437 -122.529775 183 23292ft 334kts
01-Oct-18 10:33 38.203274 -122.526705 183 21824ft 334kts
01-Oct-18 10:34 38.109913 -122.523594 182 20326ft 337kts
01-Oct-18 10:35 38.022627 -122.518590 181 18820ft 299kts
01-Oct-18 10:36 37.940567 -122.512841 180 17321ft 294kts
01-Oct-18 10:37 37.860150 -122.506888 178 15849ft 295kts
01-Oct-18 10:38 37.782985 -122.486802 175 15007ft 297kts
01-Oct-18 10:39 37.708735 -122.466847 153 12521ft 266kts
01-Oct-18 10:40 37.659172 -122.419409 144 11423ft 261kts
01-Oct-18 10:41 37.594797 -122.356029 157 8977ft 244kts
01-Oct-18 10:42 37.531003 -122.328367 164 7228ft 239kts
01-Oct-18 10:43 37.485108 -122.308721 151 7000ft 190kts
01-Oct-18 10:44 37.480366 -122.235006 72 5230ft 209kts
01-Oct-18 10:45 37.497407 -122.178722 72 4105ft 209kts
01-Oct-18 10:46 37.519038 -122.112956 69 3033ft 203kts
01-Oct-18 10:47 37.506377 -122.060530 165 2314ft 162kts
01-Oct-18 10:48 37.469956 -122.047065 154 2170ft 161kts
01-Oct-18 10:49 37.436306 -122.011492 141 1755ft 141kts
01-Oct-18 10:50 37.408536 -121.980325 138 1049ft 129kts
01-Oct-18 10:51 37.381250 -121.950356 139 374ft 131kts
01-Oct-18 10:52 37.361679 -121.928848 139 66ft 35kts
01-Oct-18 10:53 37.356678 -121.926161 227 66ft 17kts
01-Oct-18 10:54 37.357823 -121.930803 262 66ft 0kts
01-Oct-18 10:55 37.357823 -121.930803 262 66ft 0kts
01-Oct-18 10:56 37.357823 -121.930803 262 66ft 0kts
01-Oct-18 10:57 37.357823 -121.930803 262 66ft 0kts
01-Oct-18 10:58 37.357823 -121.930803 262 66ft 0kts
01-Oct-18 10:59 37.357823 -121.930803 262 66ft 0kts
01-Oct-18 11:00 37.357823 -121.930803 262 66ft 0kts
01-Oct-18 11:01 37.357823 -121.930803 262 66ft 0kts
01-Oct-18 11:02 37.357823 -121.930803 262 66ft 0kts
01-Oct-18 11:03 37.357823 -121.930803 262 66ft 0kts
01-Oct-18 11:04 37.357823 -121.930803 262 66ft 0kts
01-Oct-18 11:05 37.357823 -121.930803 262 66ft 0kts
01-Oct-18 11:06 37.357823 -121.930803 262 66ft 0kts
01-Oct-18 11:07 37.357823 -121.930803 262 66ft 0kts

Navigation Log

Ident Type
Flight plan parsing failed, navigation log unavailable